createdAt,value
2019-03-06T00:00:49.810Z,97402.19
2019-03-06T00:01:56.570Z,97395.28
2019-03-06T00:02:59.339Z,97396.80
2019-03-06T00:04:02.466Z,97397.55
2019-03-06T00:05:06.372Z,97397.55
2019-03-06T00:06:16.431Z,97386.80
2019-03-06T00:07:14.521Z,97386.80
2019-03-06T00:08:24.609Z,97396.73
2019-03-06T00:09:27.546Z,97386.94
2019-03-06T00:10:31.536Z,97386.94
2019-03-06T00:11:36.495Z,97390.98
2019-03-06T00:12:39.563Z,97394.98
2019-03-06T00:13:42.756Z,97392.80
2019-03-06T00:14:45.579Z,97386.85
2019-03-06T00:15:48.363Z,97397.20
2019-03-06T00:16:51.137Z,97397.20
2019-03-06T00:17:53.907Z,97394.28
2019-03-06T00:18:57.093Z,97386.06
2019-03-06T00:20:00.337Z,97386.06
2019-03-06T00:21:03.165Z,97385.92
2019-03-06T00:22:05.930Z,97382.33
2019-03-06T00:23:08.771Z,97374.00
2019-03-06T00:24:14.050Z,97374.00
2019-03-06T00:25:17.320Z,97379.66
2019-03-06T00:27:34.532Z,97374.81
2019-03-06T00:28:42.344Z,97372.13
2019-03-06T00:29:47.320Z,97367.06
2019-03-06T00:30:55.606Z,97367.06
2019-03-06T00:32:01.196Z,97367.12
2019-03-06T00:33:06.763Z,97362.31
2019-03-06T00:34:09.573Z,97352.11
2019-03-06T00:35:17.251Z,97357.20
2019-03-06T00:36:22.389Z,97350.77
2019-03-06T00:37:25.203Z,97350.77
2019-03-06T00:38:28.295Z,97352.42
2019-03-06T00:39:37.267Z,97349.75
2019-03-06T00:40:54.101Z,97348.14
2019-03-06T00:41:56.918Z,97341.64
2019-03-06T00:43:01.393Z,97349.86
2019-03-06T00:44:04.496Z,97346.03
2019-03-06T00:45:07.363Z,97342.20
2019-03-06T00:46:10.237Z,97342.17
2019-03-06T00:47:13.060Z,97347.02
2019-03-06T00:48:15.896Z,97347.02
2019-03-06T00:49:18.897Z,97328.86
2019-03-06T00:50:21.966Z,97333.14
2019-03-06T00:51:24.851Z,97322.15
2019-03-06T00:52:27.652Z,97329.05
2019-03-06T00:53:31.821Z,97325.39
2019-03-06T00:54:34.621Z,97325.39
2019-03-06T00:55:37.418Z,97330.63
2019-03-06T00:56:40.632Z,97325.25
2019-03-06T00:57:43.466Z,97332.09
2019-03-06T00:58:46.310Z,97323.48
2019-03-06T00:59:49.466Z,97323.45
2019-03-06T01:00:52.275Z,97324.53
2019-03-06T01:01:55.085Z,97324.86
2019-03-06T01:02:58.224Z,97321.46
2019-03-06T01:04:01.625Z,97325.81
2019-03-06T01:05:04.519Z,97333.05
2019-03-06T01:06:07.329Z,97333.05
2019-03-06T01:07:10.160Z,97323.63
2019-03-06T01:08:13.009Z,97323.84
2019-03-06T01:09:17.420Z,97323.84
2019-03-06T01:10:20.242Z,97315.80
2019-03-06T01:11:23.234Z,97315.80
2019-03-06T01:12:26.062Z,97324.00
2019-03-06T01:13:28.962Z,97324.00
2019-03-06T01:14:31.770Z,97322.59
2019-03-06T01:15:34.860Z,97330.27
2019-03-06T01:16:37.668Z,97334.71
2019-03-06T01:17:40.496Z,97334.71
2019-03-06T01:18:43.416Z,97315.95
2019-03-06T01:19:46.432Z,97325.58
2019-03-06T01:20:49.260Z,97323.94
2019-03-06T01:21:52.388Z,97321.55
2019-03-06T01:22:55.193Z,97325.66
2019-03-06T01:23:58.477Z,97325.66
2019-03-06T01:25:03.567Z,97312.31
2019-03-06T01:26:06.450Z,97322.30
2019-03-06T01:27:09.241Z,97322.30
2019-03-06T01:28:12.353Z,97312.94
2019-03-06T01:29:15.126Z,97315.77
2019-03-06T01:30:18.938Z,97324.05
2019-03-06T01:31:24.780Z,97320.99
2019-03-06T01:32:27.642Z,97325.20
2019-03-06T01:33:49.556Z,97325.20
2019-03-06T01:35:12.589Z,97311.52
2019-03-06T01:36:40.092Z,97310.32
2019-03-06T01:37:58.678Z,97311.13
2019-03-06T01:39:08.815Z,97311.13
2019-03-06T01:40:26.646Z,97312.12
2019-03-06T01:41:51.514Z,97311.05
2019-03-06T01:43:05.655Z,97310.20
2019-03-06T01:44:13.024Z,97306.78
2019-03-06T01:45:16.040Z,97304.13
2019-03-06T01:46:18.903Z,97298.84
2019-03-06T01:47:21.875Z,97301.00
2019-03-06T01:48:24.802Z,97302.23
2019-03-06T01:49:27.712Z,97308.84
2019-03-06T01:50:30.852Z,97301.60
2019-03-06T01:51:33.698Z,97299.44
2019-03-06T01:52:36.561Z,97304.52
2019-03-06T01:53:39.353Z,97300.92
2019-03-06T01:54:42.893Z,97300.92
2019-03-06T01:55:45.720Z,97304.69
2019-03-06T01:56:48.788Z,97303.31
2019-03-06T01:57:51.636Z,97303.31
2019-03-06T01:58:54.645Z,97296.45
2019-03-06T01:59:57.495Z,97289.45
2019-03-06T02:01:00.304Z,97289.45
2019-03-06T02:02:05.942Z,97283.30
2019-03-06T02:03:09.049Z,97292.09
2019-03-06T02:04:11.920Z,97291.84
2019-03-06T02:05:14.758Z,97285.58
2019-03-06T02:06:19.775Z,97280.95
2019-03-06T02:07:22.768Z,97293.13
2019-03-06T02:08:25.629Z,97284.95
2019-03-06T02:09:28.795Z,97290.84
2019-03-06T02:10:32.082Z,97284.03
2019-03-06T02:11:35.332Z,97290.27
2019-03-06T02:12:38.150Z,97280.42
2019-03-06T02:13:41.001Z,97287.73
2019-03-06T02:14:43.823Z,97289.00
2019-03-06T02:15:48.717Z,97282.17
2019-03-06T02:16:51.550Z,97279.41
2019-03-06T02:17:54.379Z,97282.22
2019-03-06T02:18:57.629Z,97278.28
2019-03-06T02:20:00.928Z,97276.30
2019-03-06T02:21:04.261Z,97279.20
2019-03-06T02:22:07.784Z,97274.34
2019-03-06T02:23:10.583Z,97276.00
2019-03-06T02:24:13.410Z,97272.48
2019-03-06T02:25:16.210Z,97277.90
2019-03-06T02:26:19.276Z,97274.70
2019-03-06T02:27:22.483Z,97267.41
2019-03-06T02:28:25.573Z,97272.95
2019-03-06T02:29:28.396Z,97265.47
2019-03-06T02:30:31.244Z,97273.78
2019-03-06T02:31:34.097Z,97273.78
2019-03-06T02:32:36.912Z,97268.45
2019-03-06T02:33:39.747Z,97265.51
2019-03-06T02:34:42.827Z,97263.69
2019-03-06T02:35:45.636Z,97259.14
2019-03-06T02:36:48.540Z,97263.81
2019-03-06T02:37:51.332Z,97265.33
2019-03-06T02:38:54.138Z,97251.11
2019-03-06T02:39:56.926Z,97257.86
2019-03-06T02:41:00.228Z,97249.80
2019-03-06T02:42:03.109Z,97255.84
2019-03-06T02:43:06.034Z,97251.72
2019-03-06T02:44:08.900Z,97245.59
2019-03-06T02:45:11.771Z,97245.59
2019-03-06T02:46:14.645Z,97240.63
2019-03-06T02:47:17.949Z,97239.86
2019-03-06T02:48:20.742Z,97236.02
2019-03-06T02:49:23.686Z,97246.72
2019-03-06T02:50:26.656Z,97240.50
2019-03-06T02:51:29.434Z,97245.19
2019-03-06T02:52:32.252Z,97249.67
2019-03-06T02:53:35.360Z,97245.27
2019-03-06T02:54:38.329Z,97241.03
2019-03-06T02:55:41.413Z,97230.38
2019-03-06T02:56:47.060Z,97241.34
2019-03-06T02:57:54.695Z,97241.59
2019-03-06T02:59:15.091Z,97234.17
2019-03-06T03:00:36.315Z,97233.55
2019-03-06T03:01:59.292Z,97230.07
2019-03-06T03:03:24.841Z,97230.66
2019-03-06T03:04:41.774Z,97221.35
2019-03-06T03:05:59.702Z,97220.56
2019-03-06T03:07:06.002Z,97220.56
2019-03-06T03:08:08.825Z,97226.03
2019-03-06T03:09:11.610Z,97210.41
2019-03-06T03:10:14.864Z,97213.36
2019-03-06T03:11:18.037Z,97211.89
2019-03-06T03:12:20.849Z,97212.14
2019-03-06T03:13:23.668Z,97195.80
2019-03-06T03:14:26.487Z,97203.58
2019-03-06T03:15:29.358Z,97204.14
2019-03-06T03:16:32.342Z,97204.14
2019-03-06T03:17:35.456Z,97203.39
2019-03-06T03:18:38.277Z,97194.27
2019-03-06T03:19:41.082Z,97200.89
2019-03-06T03:20:43.891Z,97204.33
2019-03-06T03:21:47.030Z,97201.02
2019-03-06T03:22:49.848Z,97204.27
2019-03-06T03:23:52.941Z,97196.72
2019-03-06T03:24:55.751Z,97196.72
2019-03-06T03:25:58.574Z,97194.59
2019-03-06T03:27:01.501Z,97191.39
2019-03-06T03:28:04.455Z,97192.74
2019-03-06T03:29:07.351Z,97191.34
2019-03-06T03:30:10.430Z,97193.25
2019-03-06T03:31:22.285Z,97188.52
2019-03-06T03:32:25.087Z,97203.11
2019-03-06T03:33:27.866Z,97201.52
2019-03-06T03:34:30.749Z,97201.52
2019-03-06T03:35:33.707Z,97199.73
2019-03-06T03:36:36.785Z,97198.94
2019-03-06T03:37:39.804Z,97196.47
2019-03-06T03:38:42.617Z,97192.67
2019-03-06T03:39:45.479Z,97185.41
2019-03-06T03:40:48.331Z,97168.75
2019-03-06T03:41:51.143Z,97180.42
2019-03-06T03:42:54.509Z,97180.42
2019-03-06T03:43:57.420Z,97181.52
2019-03-06T03:45:00.530Z,97174.79
2019-03-06T03:46:03.414Z,97174.50
2019-03-06T03:47:06.217Z,97168.55
2019-03-06T03:48:09.017Z,97168.55
2019-03-06T03:49:12.167Z,97164.27
2019-03-06T03:50:14.959Z,97161.38
2019-03-06T03:51:18.023Z,97161.38
2019-03-06T03:52:20.950Z,97162.66
2019-03-06T03:53:23.741Z,97157.34
2019-03-06T03:54:26.599Z,97157.66
2019-03-06T03:55:29.677Z,97140.33
2019-03-06T03:56:32.567Z,97142.52
2019-03-06T03:57:35.785Z,97140.45
2019-03-06T03:58:38.586Z,97140.45
2019-03-06T03:59:41.382Z,97137.90
2019-03-06T04:00:44.207Z,97141.69
2019-03-06T04:01:47.744Z,97141.69
2019-03-06T04:02:50.601Z,97148.42
2019-03-06T04:03:53.417Z,97139.06
2019-03-06T04:04:56.224Z,97141.63
2019-03-06T04:05:59.260Z,97141.63
2019-03-06T04:07:02.150Z,97126.67
2019-03-06T04:08:05.261Z,97127.70
2019-03-06T04:09:08.495Z,97132.63
2019-03-06T04:10:11.716Z,97135.98
2019-03-06T04:11:14.537Z,97142.50
2019-03-06T04:12:17.857Z,97142.50
2019-03-06T04:13:20.683Z,97140.47
2019-03-06T04:14:23.993Z,97136.75
2019-03-06T04:15:26.868Z,97138.41
2019-03-06T04:16:30.320Z,97135.91
2019-03-06T04:17:33.852Z,97137.91
2019-03-06T04:18:36.645Z,97135.91
2019-03-06T04:19:40.224Z,97146.11
2019-03-06T04:20:43.506Z,97146.55
2019-03-06T04:21:46.695Z,97154.79
2019-03-06T04:22:49.567Z,97156.58
2019-03-06T04:23:52.382Z,97146.64
2019-03-06T04:24:55.135Z,97151.30
2019-03-06T04:25:57.978Z,97148.86
2019-03-06T04:27:01.504Z,97148.86
2019-03-06T04:28:04.364Z,97138.02
2019-03-06T04:29:07.219Z,97135.79
2019-03-06T04:30:10.027Z,97131.75
2019-03-06T04:31:12.897Z,97127.54
2019-03-06T04:32:15.709Z,97127.87
2019-03-06T04:33:18.862Z,97134.86
2019-03-06T04:34:21.883Z,97128.19
2019-03-06T04:35:24.766Z,97133.58
2019-03-06T04:36:27.617Z,97129.22
2019-03-06T04:37:30.409Z,97130.63
2019-03-06T04:38:33.295Z,97133.62
2019-03-06T04:39:38.541Z,97133.62
2019-03-06T04:40:41.346Z,97126.67
2019-03-06T04:41:44.262Z,97125.50
2019-03-06T04:42:47.484Z,97117.38
2019-03-06T04:43:50.377Z,97117.38
2019-03-06T04:44:55.365Z,97126.07
2019-03-06T04:46:02.846Z,97128.31
2019-03-06T04:47:05.661Z,97128.31
2019-03-06T04:48:08.538Z,97118.77
2019-03-06T04:49:11.344Z,97126.72
2019-03-06T04:50:14.209Z,97114.91
2019-03-06T04:51:17.327Z,97124.80
2019-03-06T04:52:20.435Z,97131.78
2019-03-06T04:53:23.263Z,97129.34
2019-03-06T04:54:26.482Z,97120.16
2019-03-06T04:55:29.339Z,97117.39
2019-03-06T04:56:32.464Z,97110.22
2019-03-06T04:57:40.883Z,97119.59
2019-03-06T04:58:43.975Z,97108.77
2019-03-06T04:59:46.826Z,97121.32
2019-03-06T05:00:49.735Z,97124.02
2019-03-06T05:01:59.853Z,97120.54
2019-03-06T05:03:02.635Z,97129.73
2019-03-06T05:04:05.423Z,97107.98
2019-03-06T05:05:08.550Z,97125.61
2019-03-06T05:06:11.810Z,97127.50
2019-03-06T05:07:14.665Z,97140.38
2019-03-06T05:08:17.637Z,97125.61
2019-03-06T05:09:20.684Z,97125.61
2019-03-06T05:10:24.478Z,97122.42
2019-03-06T05:11:27.761Z,97127.36
2019-03-06T05:12:30.626Z,97116.11
2019-03-06T05:13:33.563Z,97123.73
2019-03-06T05:14:36.432Z,97123.73
2019-03-06T05:15:40.744Z,97126.50
2019-03-06T05:17:01.225Z,97126.50
2019-03-06T05:18:17.827Z,97123.42
2019-03-06T05:19:20.634Z,97116.45
2019-03-06T05:20:23.431Z,97115.04
2019-03-06T05:21:26.266Z,97115.04
2019-03-06T05:22:29.165Z,97110.04
2019-03-06T05:23:32.261Z,97098.86
2019-03-06T05:24:35.544Z,97098.86
2019-03-06T05:25:38.761Z,97107.02
2019-03-06T05:26:41.592Z,97107.02
2019-03-06T05:27:47.309Z,97093.78
2019-03-06T05:28:50.188Z,97093.78
2019-03-06T05:29:53.361Z,97091.58
2019-03-06T05:30:56.615Z,97079.59
2019-03-06T05:32:00.096Z,97079.59
2019-03-06T05:33:02.953Z,97090.16
2019-03-06T05:34:05.778Z,97086.22
2019-03-06T05:35:08.609Z,97085.11
2019-03-06T05:36:14.458Z,97085.11
2019-03-06T05:37:17.303Z,97083.86
2019-03-06T05:38:20.193Z,97082.43
2019-03-06T05:39:23.076Z,97065.83
2019-03-06T05:40:25.907Z,97065.91
2019-03-06T05:41:28.692Z,97064.56
2019-03-06T05:42:31.786Z,97064.56
2019-03-06T05:43:35.027Z,97061.30
2019-03-06T05:44:38.342Z,97050.59
2019-03-06T05:45:41.142Z,97059.42
2019-03-06T05:46:43.972Z,97059.42
2019-03-06T05:47:47.607Z,97051.95
2019-03-06T05:48:50.999Z,97051.95
2019-03-06T05:49:53.987Z,97047.89
2019-03-06T05:50:56.795Z,97050.92
2019-03-06T05:51:59.763Z,97054.41
2019-03-06T05:53:02.668Z,97052.52
2019-03-06T05:54:05.469Z,97045.13
2019-03-06T05:55:09.147Z,97038.08
2019-03-06T05:56:14.495Z,97046.31
2019-03-06T05:57:17.321Z,97042.43
2019-03-06T05:58:20.191Z,97045.28
2019-03-06T05:59:25.743Z,97046.55
2019-03-06T06:00:28.995Z,97044.42
2019-03-06T06:01:38.241Z,97044.42
2019-03-06T06:02:41.034Z,97046.31
2019-03-06T06:03:43.857Z,97047.37
2019-03-06T06:04:46.724Z,97045.53
2019-03-06T06:05:49.621Z,97045.53
2019-03-06T06:06:53.261Z,97045.20
2019-03-06T06:07:56.476Z,97030.84
2019-03-06T06:08:59.284Z,97037.19
2019-03-06T06:10:02.123Z,97044.50
2019-03-06T06:11:04.995Z,97042.05
2019-03-06T06:12:07.831Z,97040.70
2019-03-06T06:13:10.627Z,97046.63
2019-03-06T06:14:13.708Z,97043.61
2019-03-06T06:15:16.550Z,97038.78
2019-03-06T06:16:19.451Z,97038.78
2019-03-06T06:17:22.265Z,97034.57
2019-03-06T06:18:25.123Z,97028.69
2019-03-06T06:19:27.952Z,97030.61
2019-03-06T06:20:31.068Z,97030.61
2019-03-06T06:21:51.625Z,97029.33
2019-03-06T06:23:15.962Z,97032.03
2019-03-06T06:24:21.795Z,97032.03
2019-03-06T06:25:24.612Z,97028.63
2019-03-06T06:26:27.885Z,97028.63
2019-03-06T06:27:31.053Z,97014.27
2019-03-06T06:28:34.034Z,97014.27
2019-03-06T06:29:36.832Z,97017.98
2019-03-06T06:43:52.525Z,96990.48
2019-03-06T06:44:55.359Z,96992.86
2019-03-06T06:45:58.193Z,96997.69
2019-03-06T06:47:01.039Z,96998.82
2019-03-06T06:48:03.834Z,96993.19
2019-03-06T06:49:07.029Z,96986.59
2019-03-06T06:50:09.832Z,96991.34
2019-03-06T06:51:12.790Z,96992.70
2019-03-06T06:52:15.589Z,96990.78
2019-03-06T06:53:21.490Z,96984.52
2019-03-06T06:54:24.410Z,96979.37
2019-03-06T06:55:27.650Z,96979.61
2019-03-06T06:56:30.769Z,96978.97
2019-03-06T06:57:36.033Z,96988.81
2019-03-06T06:58:38.866Z,96988.81
2019-03-06T06:59:41.774Z,96977.61
2019-03-06T07:01:09.735Z,96979.98
2019-03-06T07:02:20.342Z,96979.98
2019-03-06T07:03:47.921Z,96972.38
2019-03-06T07:05:07.775Z,96968.32
2019-03-06T07:06:49.044Z,96966.56
2019-03-06T07:08:13.349Z,96966.08
2019-03-06T07:09:33.086Z,96963.08
2019-03-06T07:11:09.475Z,96963.08
2019-03-06T07:12:34.019Z,96958.80
2019-03-06T07:14:01.514Z,96959.28
2019-03-06T07:15:17.349Z,96959.97
2019-03-06T07:16:38.927Z,96958.21
2019-03-06T07:17:48.018Z,96958.45
2019-03-06T07:19:11.410Z,96958.45
2019-03-06T07:20:39.377Z,96951.20
2019-03-06T07:21:59.453Z,96949.56
2019-03-06T07:23:14.030Z,96946.59
2019-03-06T07:24:48.699Z,96946.59
2019-03-06T07:26:05.411Z,96945.05
2019-03-06T07:27:31.441Z,96941.26
2019-03-06T07:29:01.261Z,96942.05
2019-03-06T07:30:25.691Z,96950.16
2019-03-06T07:31:50.150Z,96950.16
2019-03-06T07:33:06.928Z,96948.20
2019-03-06T07:34:27.052Z,96945.54
2019-03-06T07:35:52.875Z,96945.54
2019-03-06T07:37:05.769Z,96947.42
2019-03-06T07:38:10.541Z,96951.69
2019-03-06T07:39:39.932Z,96939.73
2019-03-06T07:41:01.858Z,96939.73
2019-03-06T07:42:21.795Z,96929.27
2019-03-06T07:43:35.984Z,96931.73
2019-03-06T07:44:57.507Z,96926.08
2019-03-06T07:46:28.560Z,96926.08
2019-03-06T07:47:44.253Z,96916.55
2019-03-06T07:49:04.428Z,96916.55
2019-03-06T07:50:35.292Z,96919.60
2019-03-06T07:52:02.572Z,96917.47
2019-03-06T07:53:15.580Z,96917.47
2019-03-06T07:54:34.374Z,96915.10
2019-03-06T07:55:54.083Z,96912.73
2019-03-06T07:57:03.054Z,96914.53
2019-03-06T07:58:06.347Z,96915.55
2019-03-06T07:59:09.241Z,96915.55
2019-03-06T08:00:12.202Z,96923.95
2019-03-06T08:01:17.300Z,96927.47
2019-03-06T08:02:21.239Z,96927.38
2019-03-06T08:03:24.751Z,96926.80
2019-03-06T08:04:27.927Z,96927.67
2019-03-06T08:05:30.720Z,96932.71
2019-03-06T08:06:33.611Z,96932.71
2019-03-06T08:07:36.437Z,96942.23
2019-03-06T08:08:39.692Z,96934.91
2019-03-06T08:09:42.645Z,96933.17
2019-03-06T08:10:49.569Z,96936.65
2019-03-06T08:12:16.918Z,96936.65
2019-03-06T08:13:38.481Z,96931.36
2019-03-06T08:14:46.641Z,96941.95
2019-03-06T08:15:57.653Z,96923.45
2019-03-06T08:17:22.685Z,96909.85
2019-03-06T08:18:53.023Z,96909.85
2019-03-06T08:20:13.863Z,96924.25
2019-03-06T08:21:41.215Z,96921.40
2019-03-06T08:23:09.491Z,96922.56
2019-03-06T08:24:47.317Z,96909.95
2019-03-06T08:25:51.310Z,96909.95
2019-03-06T08:26:54.120Z,96902.77
2019-03-06T08:27:56.906Z,96909.27
2019-03-06T08:29:03.262Z,96912.84
2019-03-06T08:30:06.084Z,96914.48
2019-03-06T08:31:39.693Z,96904.09
2019-03-06T08:32:42.504Z,96911.59
2019-03-06T08:33:45.320Z,96906.66
2019-03-06T08:34:49.836Z,96906.66
2019-03-06T08:35:53.038Z,96910.54
2019-03-06T08:36:55.852Z,96907.20
2019-03-06T08:38:01.608Z,96912.17
2019-03-06T08:39:04.959Z,96912.17
2019-03-06T08:40:07.825Z,96905.22
2019-03-06T08:41:10.624Z,96903.17
2019-03-06T08:42:16.767Z,96909.64
2019-03-06T08:43:19.974Z,96893.44
2019-03-06T08:44:25.828Z,96891.06
2019-03-06T08:45:32.833Z,96889.32
2019-03-06T08:46:59.914Z,96895.98
2019-03-06T08:48:15.616Z,96898.63
2019-03-06T08:49:55.329Z,96898.63
2019-03-06T08:51:03.863Z,96883.52
2019-03-06T08:52:30.939Z,96885.68
2019-03-06T08:53:50.244Z,96867.83
2019-03-06T08:55:13.298Z,96882.60
2019-03-06T08:56:37.734Z,96876.41
2019-03-06T08:58:02.602Z,96876.20
2019-03-06T08:59:23.029Z,96882.90
2019-03-06T09:00:42.970Z,96874.02
2019-03-06T09:02:15.741Z,96865.34
2019-03-06T09:03:38.570Z,96878.31
2019-03-06T09:05:06.969Z,96879.44
2019-03-06T09:06:24.720Z,96874.02
2019-03-06T09:08:01.442Z,96871.13
2019-03-06T09:09:38.644Z,96866.83
2019-03-06T09:11:03.442Z,96866.08
2019-03-06T09:12:16.599Z,96849.62
2019-03-06T09:13:36.571Z,96854.72
2019-03-06T09:14:56.463Z,96850.55
2019-03-06T09:16:16.438Z,96852.00
2019-03-06T09:17:46.870Z,96859.02
2019-03-06T09:19:05.894Z,96867.59
2019-03-06T09:20:40.680Z,96862.41
2019-03-06T09:21:46.852Z,96864.66
2019-03-06T09:23:05.943Z,96864.66
2019-03-06T09:24:42.496Z,96855.98
2019-03-06T09:25:55.702Z,96863.54
2019-03-06T09:27:07.136Z,96852.16
2019-03-06T09:28:28.802Z,96868.63
2019-03-06T09:29:50.321Z,96865.27
2019-03-06T09:31:11.876Z,96855.45
2019-03-06T09:32:27.792Z,96849.58
2019-03-06T09:33:58.423Z,96847.20
2019-03-06T09:35:22.843Z,96850.32
2019-03-06T09:36:44.438Z,96850.32
2019-03-06T09:38:20.997Z,96846.90
2019-03-06T09:39:34.279Z,96846.90
2019-03-06T09:41:05.110Z,96850.74
2019-03-06T09:42:38.613Z,96856.88
2019-03-06T09:44:15.559Z,96843.10
2019-03-06T09:45:45.899Z,96831.44
2019-03-06T09:47:03.387Z,96831.31
2019-03-06T09:48:57.062Z,96821.91
2019-03-06T09:50:06.762Z,96822.81
2019-03-06T09:51:32.636Z,96814.67
2019-03-06T09:52:58.498Z,96802.01
2019-03-06T09:54:18.499Z,96794.38
2019-03-06T09:55:41.773Z,96794.38
2019-03-06T09:57:06.199Z,96788.24
2019-03-06T09:58:21.510Z,96788.24
2019-03-06T09:59:29.633Z,96785.75
2019-03-06T10:01:03.228Z,96765.85
2019-03-06T10:02:28.449Z,96758.48
2019-03-06T10:03:46.180Z,96758.48
2019-03-06T10:05:03.640Z,96764.71
2019-03-06T10:06:37.291Z,96771.01
2019-03-06T10:07:58.270Z,96771.01
2019-03-06T10:09:20.783Z,96766.63
2019-03-06T10:10:47.544Z,96766.63
2019-03-06T10:12:16.437Z,96758.02
2019-03-06T10:13:41.594Z,96752.52
2019-03-06T10:15:12.146Z,96736.61
2019-03-06T10:16:20.488Z,96733.43
2019-03-06T10:17:51.082Z,96735.73
2019-03-06T10:19:12.781Z,96746.66
2019-03-06T10:20:26.772Z,96742.03
2019-03-06T10:21:36.376Z,96728.08
2019-03-06T10:22:39.256Z,96734.96
2019-03-06T10:23:42.120Z,96739.17
2019-03-06T10:24:45.921Z,96719.86
2019-03-06T10:25:48.559Z,96721.24
2019-03-06T10:26:51.740Z,96721.24
2019-03-06T10:27:54.593Z,96724.96
2019-03-06T10:29:00.029Z,96721.81
2019-03-06T10:30:03.039Z,96723.48
2019-03-06T10:31:05.861Z,96736.09
2019-03-06T10:32:08.677Z,96725.20
2019-03-06T10:33:14.337Z,96729.98
2019-03-06T10:34:17.158Z,96718.40
2019-03-06T10:35:22.625Z,96718.40
2019-03-06T10:36:25.606Z,96717.67
2019-03-06T10:37:28.517Z,96737.43
2019-03-06T10:38:43.708Z,96722.41
2019-03-06T10:39:49.650Z,96722.41
2019-03-06T10:40:52.465Z,96707.39
2019-03-06T10:41:55.424Z,96707.39
2019-03-06T10:42:59.987Z,96716.06
2019-03-06T10:44:04.585Z,96722.42
2019-03-06T10:45:08.156Z,96714.41
2019-03-06T10:46:11.132Z,96725.38
2019-03-06T10:47:14.050Z,96721.59
2019-03-06T10:48:18.853Z,96723.20
2019-03-06T10:49:22.455Z,96716.03
2019-03-06T10:50:31.739Z,96718.94
2019-03-06T10:51:37.508Z,96718.94
2019-03-06T10:52:40.326Z,96726.52
2019-03-06T10:53:43.147Z,96729.23
2019-03-06T10:54:47.999Z,96729.09
2019-03-06T10:55:50.762Z,96720.85
2019-03-06T10:56:53.961Z,96728.17
2019-03-06T10:57:58.842Z,96730.97
2019-03-06T10:59:02.227Z,96731.03
2019-03-06T11:00:07.436Z,96724.16
2019-03-06T11:01:10.242Z,96727.80
2019-03-06T11:02:13.315Z,96708.89
2019-03-06T11:03:18.414Z,96708.89
2019-03-06T11:04:49.319Z,96720.52
2019-03-06T11:05:52.099Z,96705.55
2019-03-06T11:06:56.150Z,96704.15
2019-03-06T11:08:04.810Z,96706.32
2019-03-06T11:09:07.230Z,96692.64
2019-03-06T11:10:23.395Z,96685.31
2019-03-06T11:11:20.134Z,96685.31
2019-03-06T11:12:22.979Z,96669.71
2019-03-06T11:13:26.112Z,96674.02
2019-03-06T11:14:29.296Z,96690.23
2019-03-06T11:15:34.398Z,96680.71
2019-03-06T11:16:40.196Z,96679.78
2019-03-06T11:17:43.706Z,96679.78
2019-03-06T11:18:51.384Z,96683.03
2019-03-06T11:19:54.406Z,96680.30
2019-03-06T11:21:00.303Z,96673.30
2019-03-06T11:22:07.404Z,96673.30
2019-03-06T11:23:20.658Z,96679.05
2019-03-06T11:24:24.841Z,96659.88
2019-03-06T11:25:27.660Z,96651.74
2019-03-06T11:26:30.570Z,96652.98
2019-03-06T11:27:33.679Z,96659.68
2019-03-06T11:28:36.583Z,96657.00
2019-03-06T11:29:40.193Z,96654.24
2019-03-06T11:42:39.754Z,96625.13
2019-03-06T11:43:42.682Z,96627.20
2019-03-06T11:44:55.775Z,96624.77
2019-03-06T11:45:58.584Z,96624.77
2019-03-06T11:47:01.600Z,96620.84
2019-03-06T11:48:04.920Z,96623.84
2019-03-06T11:49:07.619Z,96623.84
2019-03-06T11:50:13.271Z,96621.58
2019-03-06T11:51:16.454Z,96607.92
2019-03-06T11:52:23.104Z,96604.55
2019-03-06T11:53:25.932Z,96604.48
2019-03-06T11:54:36.276Z,96609.53
2019-03-06T11:55:40.477Z,96608.54
2019-03-06T11:56:46.508Z,96602.89
2019-03-06T11:57:49.345Z,96608.87
2019-03-06T11:58:52.258Z,96610.80
2019-03-06T11:59:57.304Z,96608.87
2019-03-06T12:01:00.661Z,96608.87
2019-03-06T12:02:03.709Z,96592.87
2019-03-06T12:03:06.459Z,96591.09
2019-03-06T12:04:09.175Z,96602.63
2019-03-06T12:05:12.778Z,96594.72
2019-03-06T12:06:18.346Z,96579.80
2019-03-06T12:07:22.548Z,96579.36
2019-03-06T12:08:29.004Z,96604.03
2019-03-06T12:09:32.136Z,96598.02
2019-03-06T12:10:37.019Z,96582.09
2019-03-06T12:11:39.874Z,96580.05
2019-03-06T12:12:42.825Z,96583.03
2019-03-06T12:13:49.828Z,96576.66
2019-03-06T12:14:52.793Z,96570.02
2019-03-06T12:15:55.730Z,96572.52
2019-03-06T12:16:58.892Z,96572.74
2019-03-06T12:18:01.847Z,96570.69
2019-03-06T12:19:09.831Z,96569.48
2019-03-06T12:20:17.753Z,96575.47
2019-03-06T12:21:28.715Z,96575.98
2019-03-06T12:22:33.178Z,96575.98
2019-03-06T12:23:36.300Z,96564.23
2019-03-06T12:24:39.203Z,96572.95
2019-03-06T12:25:43.101Z,96567.00
2019-03-06T12:26:46.072Z,96558.82
2019-03-06T12:27:48.795Z,96563.66
2019-03-06T12:28:51.614Z,96563.66
2019-03-06T12:29:57.231Z,96561.26
2019-03-06T12:31:00.157Z,96557.73
2019-03-06T12:32:07.136Z,96549.25
2019-03-06T12:33:10.665Z,96549.25
2019-03-06T12:34:13.557Z,96547.02
2019-03-06T12:35:16.700Z,96559.09
2019-03-06T12:36:19.436Z,96551.67
2019-03-06T12:37:22.169Z,96562.56
2019-03-06T12:38:25.934Z,96545.06
2019-03-06T12:39:29.726Z,96545.06
2019-03-06T12:40:32.925Z,96548.56
2019-03-06T12:41:35.723Z,96544.64
2019-03-06T12:42:38.624Z,96544.64
2019-03-06T12:43:41.277Z,96538.23
2019-03-06T12:44:44.005Z,96541.86
2019-03-06T12:45:48.218Z,96541.86
2019-03-06T12:46:51.073Z,96539.03
2019-03-06T12:47:56.923Z,96533.73
2019-03-06T12:48:59.802Z,96542.23
2019-03-06T12:50:05.718Z,96538.52
2019-03-06T12:51:07.384Z,96540.83
2019-03-06T12:52:10.732Z,96554.44
2019-03-06T12:53:16.512Z,96534.77
2019-03-06T12:54:19.266Z,96551.88
2019-03-06T12:55:22.165Z,96548.66
2019-03-06T12:56:24.892Z,96563.63
2019-03-06T12:57:27.844Z,96544.81
2019-03-06T12:59:38.912Z,96525.51
2019-03-06T13:00:41.653Z,96550.91
2019-03-06T13:01:44.240Z,96543.58
2019-03-06T13:02:52.389Z,96543.58
2019-03-06T13:03:55.516Z,96561.47
2019-03-06T13:04:58.208Z,96542.15
2019-03-06T13:06:01.037Z,96527.09
2019-03-06T13:07:03.849Z,96527.09
2019-03-06T13:08:06.768Z,96509.77
2019-03-06T13:09:10.155Z,96512.14
2019-03-06T13:10:17.176Z,96512.14
2019-03-06T13:11:19.925Z,96495.86
2019-03-06T13:12:22.711Z,96498.16
2019-03-06T13:13:35.264Z,96495.43
2019-03-06T13:14:30.670Z,96492.09
2019-03-06T13:15:33.402Z,96499.03
2019-03-06T13:16:36.282Z,96501.17
2019-03-06T13:17:41.726Z,96490.38
2019-03-06T13:18:44.566Z,96490.38
2019-03-06T13:19:47.529Z,96492.89
2019-03-06T13:20:53.250Z,96488.75
2019-03-06T13:21:58.876Z,96486.92
2019-03-06T13:23:04.064Z,96484.14
2019-03-06T13:24:06.316Z,96494.60
2019-03-06T13:25:09.190Z,96492.41
2019-03-06T13:26:12.089Z,96468.33
2019-03-06T13:27:15.233Z,96468.44
2019-03-06T13:28:18.064Z,96475.05
2019-03-06T13:29:35.545Z,96475.05
2019-03-06T13:30:38.367Z,96470.77
2019-03-06T13:31:41.136Z,96461.80
2019-03-06T13:33:08.581Z,96462.38
2019-03-06T13:34:31.063Z,96464.68
2019-03-06T13:35:34.294Z,96464.68
2019-03-06T13:36:42.515Z,96466.64
2019-03-06T13:37:52.060Z,96466.64
2019-03-06T13:39:06.071Z,96463.32
2019-03-06T13:40:00.964Z,96484.25
2019-03-06T13:41:04.037Z,96484.25